Hlavní strana
METAR-TAF:

METAR-TAF

Letiště :

Dundee, Skotsko

zeměpisná šířka: 56-27N, zeměpisná délka: 003-01W, výška: 4 m

Aktuální stav počasí

Zpráva byla vytvořena před 29 minutami, v 16:20 UTC
Západní vítr 7 kt
Teplota 8°C
Vlhkost vzduchu 93%
Tlak 1034 hPa
Viditelnost 10 km a více
Žádná oblačnost pod 1500 m, nevyskytují se cumulonimby.

METAR: EGPN 221620Z 28007KT CAVOK 08/07 Q1034

Čas: 16:49 (16:49 UTC)

Předpověď počasí

Zpráva byla vytvořena před 2 hodinami a 47 minutami, v 14:02 UTC
Předpověď platná od 22 v 15 UTC do 22 v 21 UTC
Západní vítr 9 kt
Viditelnost 10 km a více
Skoro jasno ve výšce 3000 ft

TAF: EGPN 221402Z 2215/2221 26009KT 9999 FEW030

Stav a předpovědi počasí z více než 4 000 letišť (zprávy METAR a TAF).

Červené a žluté tečky na mapě představují dostupné meteorologické stanice.

Když kurzor umístíte na tečku, zobrazí se název stanice.

Pak kliknutím zobrazíte stav a předpověď počasí.

Chcete-li změnit mapu, kliknutím na zelené tlačítko se znaménkem +mapu přiblížíte, kliknutím na zelené tlačítko se znaménkem – mapu oddálíte a kliknutím na zelené šipky přejdete na sousední mapy.


METAR-TAF: